createdAt,value
2018-01-08T00:02:26.008Z,35.78
2018-01-08T00:04:53.460Z,35.42
2018-01-08T00:07:20.895Z,36.47
2018-01-08T00:09:48.351Z,34.13
2018-01-08T00:12:16.563Z,34.38
2018-01-08T00:14:44.776Z,35.10
2018-01-08T00:17:12.226Z,34.03
2018-01-08T00:19:40.440Z,33.88
2018-01-08T00:22:08.644Z,35.63
2018-01-08T00:24:36.095Z,31.95
2018-01-08T00:27:03.540Z,32.25
2018-01-08T00:29:30.978Z,34.17
2018-01-08T00:31:59.208Z,33.30
2018-01-08T00:34:26.657Z,34.10
2018-01-08T00:36:54.875Z,32.23
2018-01-08T00:39:22.321Z,34.20
2018-01-08T00:41:49.782Z,33.83
2018-01-08T00:44:17.238Z,36.08
2018-01-08T00:46:44.707Z,33.95
2018-01-08T00:49:12.156Z,34.42
2018-01-08T00:51:40.367Z,35.47
2018-01-08T00:54:07.808Z,33.22
2018-01-08T00:56:35.269Z,36.10
2018-01-08T00:59:02.722Z,36.00
2018-01-08T01:01:30.173Z,36.38
2018-01-08T01:03:58.370Z,35.50
2018-01-08T01:06:26.606Z,34.60
2018-01-08T01:08:54.056Z,35.17
2018-01-08T01:11:22.276Z,35.70
2018-01-08T01:13:49.725Z,35.13
2018-01-08T01:16:17.941Z,36.38
2018-01-08T01:18:45.395Z,34.30
2018-01-08T01:21:12.843Z,36.58
2018-01-08T01:23:40.297Z,34.23
2018-01-08T01:26:07.745Z,37.53
2018-01-08T01:28:35.962Z,38.30
2018-01-08T01:31:03.416Z,38.28
2018-01-08T01:33:31.630Z,38.05
2018-01-08T01:35:59.853Z,37.78
2018-01-08T01:38:27.291Z,38.53
2018-01-08T01:40:54.754Z,39.15
2018-01-08T01:43:22.199Z,39.25
2018-01-08T01:45:49.654Z,40.30
2018-01-08T01:48:17.865Z,39.58
2018-01-08T01:50:45.316Z,39.60
2018-01-08T01:53:12.771Z,39.05
2018-01-08T01:55:40.212Z,37.97
2018-01-08T01:58:07.652Z,39.40
2018-01-08T02:00:35.115Z,39.70
2018-01-08T02:03:02.557Z,40.75
2018-01-08T02:05:30.014Z,40.13
2018-01-08T02:07:58.216Z,40.55
2018-01-08T02:10:25.668Z,41.08
2018-01-08T02:12:53.962Z,41.50
2018-01-08T02:15:21.414Z,40.40
2018-01-08T02:17:48.867Z,38.60
2018-01-08T02:20:16.322Z,39.08
2018-01-08T02:22:43.744Z,40.00
2018-01-08T02:25:11.205Z,38.53
2018-01-08T02:27:38.650Z,39.55
2018-01-08T02:30:06.089Z,36.73
2018-01-08T02:32:33.555Z,38.15
2018-01-08T02:35:00.994Z,36.42
2018-01-08T02:37:28.445Z,39.17
2018-01-08T02:39:55.904Z,38.92
2018-01-08T02:42:23.352Z,37.10
2018-01-08T02:44:51.563Z,38.87
2018-01-08T02:47:19.776Z,40.20
2018-01-08T02:49:47.225Z,40.85
2018-01-08T02:52:15.449Z,39.90
2018-01-08T02:54:42.897Z,38.33
2018-01-08T02:57:10.349Z,38.83
2018-01-08T02:59:37.792Z,42.53
2018-01-08T03:02:05.241Z,40.55
2018-01-08T03:04:33.443Z,39.83
2018-01-08T03:07:01.665Z,39.25
2018-01-08T03:09:29.122Z,39.38
2018-01-08T03:11:57.342Z,38.38
2018-01-08T03:14:24.789Z,39.78
2018-01-08T03:16:52.250Z,37.95
2018-01-08T03:19:19.693Z,37.90
2018-01-08T03:21:47.149Z,41.05
2018-01-08T03:24:15.360Z,39.08
2018-01-08T03:26:42.818Z,38.42
2018-01-08T03:29:10.260Z,37.70
2018-01-08T03:31:37.708Z,40.03
2018-01-08T03:34:05.210Z,38.65
2018-01-08T03:36:33.388Z,37.88
2018-01-08T03:39:00.833Z,38.67
2018-01-08T03:41:28.282Z,36.58
2018-01-08T03:43:55.719Z,36.33
2018-01-08T03:46:23.946Z,36.20
2018-01-08T03:48:51.379Z,36.20
2018-01-08T03:51:19.600Z,34.65
2018-01-08T03:53:47.045Z,36.47
2018-01-08T03:56:14.501Z,35.70
2018-01-08T03:58:42.717Z,34.65
2018-01-08T04:01:10.183Z,34.88
2018-01-08T04:03:38.402Z,35.70
2018-01-08T04:06:05.858Z,35.53
2018-01-08T04:08:34.059Z,37.40
2018-01-08T04:11:02.269Z,37.53
2018-01-08T04:13:29.725Z,35.50
2018-01-08T04:15:57.953Z,35.33
2018-01-08T04:18:25.409Z,35.80
2018-01-08T04:20:52.836Z,35.28
2018-01-08T04:23:20.296Z,36.05
2018-01-08T04:25:47.760Z,33.65
2018-01-08T04:28:15.963Z,33.85
2018-01-08T04:30:44.177Z,33.53
2018-01-08T04:33:11.633Z,32.03
2018-01-08T04:35:39.841Z,32.55
2018-01-08T04:38:08.055Z,31.42
2018-01-08T04:40:35.492Z,32.40
2018-01-08T04:43:02.953Z,32.20
2018-01-08T04:45:30.399Z,30.83
2018-01-08T04:47:57.856Z,33.03
2018-01-08T04:50:26.056Z,31.98
2018-01-08T04:52:54.280Z,31.92
2018-01-08T04:55:21.733Z,33.17
2018-01-08T04:57:49.943Z,32.50
2018-01-08T05:00:17.388Z,31.55
2018-01-08T05:02:44.844Z,31.92
2018-01-08T05:05:12.286Z,31.12
2018-01-08T05:07:39.740Z,33.45
2018-01-08T05:10:07.194Z,31.75
2018-01-08T05:12:34.653Z,33.35
2018-01-08T05:15:02.139Z,30.02
2018-01-08T05:17:29.594Z,28.10
2018-01-08T05:19:57.030Z,27.60
2018-01-08T05:22:24.483Z,28.42
2018-01-08T05:24:51.932Z,27.95
2018-01-08T05:27:19.392Z,25.67
2018-01-08T05:29:46.830Z,24.73
2018-01-08T05:32:14.293Z,27.37
2018-01-08T05:34:41.743Z,25.83
2018-01-08T05:37:09.956Z,26.08
2018-01-08T05:39:37.399Z,25.17
2018-01-08T05:42:04.852Z,24.97
2018-01-08T05:44:32.307Z,26.42
2018-01-08T05:46:59.758Z,23.95
2018-01-08T05:49:28.001Z,25.03
2018-01-08T05:51:55.458Z,26.67
2018-01-08T05:54:22.905Z,25.12
2018-01-08T05:56:50.361Z,26.25
2018-01-08T05:59:17.814Z,25.77
2018-01-08T06:01:45.276Z,24.52
2018-01-08T06:04:12.725Z,26.10
2018-01-08T06:06:40.206Z,27.20
2018-01-08T06:09:07.661Z,27.17
2018-01-08T06:11:35.115Z,26.00
2018-01-08T06:14:02.563Z,25.03
2018-01-08T06:16:30.786Z,26.37
2018-01-08T06:18:58.237Z,26.92
2018-01-08T06:21:25.680Z,26.98
2018-01-08T06:23:53.129Z,27.93
2018-01-08T06:26:20.585Z,27.62
2018-01-08T06:28:48.811Z,30.10
2018-01-08T06:31:16.298Z,28.45
2018-01-08T06:33:43.695Z,27.93
2018-01-08T06:36:11.148Z,28.55
2018-01-08T06:38:38.594Z,30.05
2018-01-08T06:41:06.024Z,30.60
2018-01-08T06:43:33.492Z,29.05
2018-01-08T06:46:00.935Z,28.48
2018-01-08T06:48:28.394Z,28.58
2018-01-08T06:50:55.844Z,28.27
2018-01-08T06:53:23.294Z,28.08
2018-01-08T06:55:51.506Z,28.48
2018-01-08T06:58:19.010Z,26.30
2018-01-08T07:00:46.453Z,26.95
2018-01-08T07:03:14.676Z,28.30
2018-01-08T07:05:42.129Z,27.35
2018-01-08T07:08:09.582Z,29.40
2018-01-08T07:10:37.032Z,30.50
2018-01-08T07:13:04.481Z,29.42
2018-01-08T07:15:32.681Z,29.43
2018-01-08T07:18:00.900Z,29.92
2018-01-08T07:20:28.340Z,29.20
2018-01-08T07:22:55.796Z,28.60
2018-01-08T07:25:23.233Z,28.90
2018-01-08T07:27:50.696Z,27.60
2018-01-08T07:30:18.910Z,28.75
2018-01-08T07:32:46.359Z,29.58
2018-01-08T07:35:13.803Z,29.67
2018-01-08T07:37:41.261Z,29.80
2018-01-08T07:40:08.697Z,31.05
2018-01-08T07:42:36.198Z,30.25
2018-01-08T07:45:03.592Z,29.85
2018-01-08T07:47:31.805Z,29.90
2018-01-08T07:49:59.244Z,30.15
2018-01-08T07:52:26.686Z,29.65
2018-01-08T07:54:54.122Z,30.30
2018-01-08T07:57:22.354Z,30.88
2018-01-08T07:59:49.802Z,32.45
2018-01-08T08:02:18.044Z,31.85
2018-01-08T08:04:45.490Z,31.10
2018-01-08T08:07:13.712Z,30.27
2018-01-08T08:09:41.171Z,30.95
2018-01-08T08:12:09.398Z,29.98
2018-01-08T08:14:36.853Z,31.98
2018-01-08T08:17:04.304Z,31.05
2018-01-08T08:19:31.759Z,31.80
2018-01-08T08:21:59.198Z,33.28
2018-01-08T08:24:26.656Z,31.37
2018-01-08T08:26:54.876Z,32.33
2018-01-08T08:29:22.334Z,30.83
2018-01-08T08:31:49.799Z,29.53
2018-01-08T08:34:17.228Z,28.50
2018-01-08T08:36:44.669Z,29.23
2018-01-08T08:39:12.126Z,28.07
2018-01-08T08:41:39.577Z,27.13
2018-01-08T08:44:07.028Z,29.12
2018-01-08T08:46:35.236Z,26.20
2018-01-08T08:49:03.455Z,28.20
2018-01-08T08:51:30.894Z,25.88
2018-01-08T08:53:58.357Z,26.73
2018-01-08T08:56:25.802Z,27.08
2018-01-08T08:58:53.256Z,26.90
2018-01-08T09:01:21.469Z,28.87
2018-01-08T09:03:48.928Z,26.80
2018-01-08T09:06:17.135Z,27.30
2018-01-08T09:08:45.361Z,24.37
2018-01-08T09:11:12.799Z,25.98
2018-01-08T09:13:40.261Z,27.87
2018-01-08T09:16:07.749Z,26.70
2018-01-08T09:18:35.196Z,26.45
2018-01-08T09:21:02.640Z,25.02
2018-01-08T09:23:30.864Z,24.50
2018-01-08T09:25:58.309Z,25.00
2018-01-08T09:28:26.535Z,23.87
2018-01-08T09:30:53.978Z,22.55
2018-01-08T09:33:21.420Z,25.73
2018-01-08T09:35:48.872Z,24.73
2018-01-08T09:38:16.320Z,25.95
2018-01-08T09:40:43.777Z,23.65
2018-01-08T09:43:11.220Z,21.10
2018-01-08T09:45:38.673Z,19.47
2018-01-08T09:48:06.876Z,20.17
2018-01-08T09:50:35.096Z,21.03
2018-01-08T09:53:02.539Z,21.07
2018-01-08T09:55:31.021Z,24.70
2018-01-08T09:57:58.453Z,23.45
2018-01-08T10:00:25.905Z,23.60
2018-01-08T10:03:05.844Z,20.70
2018-01-08T10:05:45.346Z,18.57
2018-01-08T10:08:25.522Z,23.90
2018-01-08T10:11:04.959Z,21.93
2018-01-08T10:13:44.399Z,23.83
2018-01-08T10:16:23.715Z,23.40
2018-01-08T10:21:46.683Z,23.90
2018-01-08T10:24:14.146Z,23.65
2018-01-08T10:29:08.567Z,18.90
2018-01-08T10:31:36.783Z,23.65
2018-01-08T10:34:04.220Z,25.30
2018-01-08T10:36:31.678Z,23.62
2018-01-08T10:38:59.109Z,24.80
2018-01-08T10:41:32.992Z,25.23
2018-01-08T10:44:06.299Z,24.83
2018-01-08T10:46:39.508Z,23.15
2018-01-08T10:49:12.619Z,22.90
2018-01-08T10:51:40.532Z,23.45
2018-01-08T10:54:07.991Z,22.98
2018-01-08T10:56:35.445Z,23.87
2018-01-08T10:59:03.670Z,21.80
2018-01-08T11:04:35.926Z,22.87
2018-01-08T11:07:03.388Z,21.42
2018-01-08T11:09:30.833Z,20.75
2018-01-08T11:11:58.281Z,21.30
2018-01-08T11:14:25.729Z,21.52
2018-01-08T11:16:53.191Z,20.50
2018-01-08T11:19:21.406Z,20.60
2018-01-08T11:21:48.858Z,21.85
2018-01-08T11:24:16.316Z,20.65
2018-01-08T11:26:43.769Z,21.00
2018-01-08T11:29:11.217Z,20.50
2018-01-08T11:31:39.435Z,20.10
2018-01-08T11:34:06.879Z,20.55
2018-01-08T11:36:34.341Z,21.10
2018-01-08T11:39:01.782Z,20.95
2018-01-08T11:41:29.227Z,19.50
2018-01-08T11:43:57.446Z,19.20
2018-01-08T11:46:25.658Z,19.97
2018-01-08T11:48:53.101Z,18.75
2018-01-08T11:51:20.553Z,18.37
2018-01-08T11:53:48.005Z,19.45
2018-01-08T11:56:15.447Z,19.60
2018-01-08T11:58:43.683Z,18.70
2018-01-08T12:01:11.122Z,19.62
2018-01-08T12:03:38.602Z,18.73
2018-01-08T12:06:06.045Z,18.58
2018-01-08T12:08:33.503Z,19.20
2018-01-08T12:11:00.941Z,19.00
2018-01-08T12:13:28.405Z,18.10
2018-01-08T12:15:55.845Z,18.20
2018-01-08T12:18:23.296Z,16.97
2018-01-08T12:20:51.512Z,16.55
2018-01-08T12:23:18.971Z,16.60
2018-01-08T12:25:47.174Z,16.37
2018-01-08T12:28:15.395Z,17.20
2018-01-08T12:30:43.598Z,17.47
2018-01-08T12:33:11.113Z,17.48
2018-01-08T12:35:38.554Z,18.33
2018-01-08T12:38:06.014Z,18.35
2018-01-08T12:40:34.228Z,18.27
2018-01-08T12:43:01.693Z,18.20
2018-01-08T12:45:29.906Z,18.52
2018-01-08T12:47:57.357Z,18.98
2018-01-08T12:50:24.802Z,17.65
2018-01-08T12:52:52.260Z,19.33
2018-01-08T12:55:19.708Z,17.60
2018-01-08T12:57:47.181Z,17.00
2018-01-08T13:00:14.635Z,16.92
2018-01-08T13:02:42.072Z,18.07
2018-01-08T13:05:09.534Z,17.20
2018-01-08T13:07:37.750Z,16.52
2018-01-08T13:10:05.205Z,17.60
2018-01-08T13:12:32.665Z,15.95
2018-01-08T13:15:00.122Z,17.65
2018-01-08T13:17:27.574Z,17.58
2018-01-08T13:19:55.044Z,17.52
2018-01-08T13:22:23.270Z,17.02
2018-01-08T13:24:50.737Z,16.70
2018-01-08T13:27:18.178Z,16.20
2018-01-08T13:29:45.634Z,15.60
2018-01-08T13:32:13.074Z,15.15
2018-01-08T13:34:40.525Z,15.00
2018-01-08T13:37:07.974Z,15.35
2018-01-08T13:39:35.437Z,15.18
2018-01-08T13:42:02.878Z,13.25
2018-01-08T13:44:31.105Z,14.70
2018-01-08T13:46:58.554Z,14.65
2018-01-08T13:49:26.012Z,15.20
2018-01-08T13:51:53.460Z,14.00
2018-01-08T13:54:20.917Z,14.52
2018-01-08T13:56:49.130Z,13.80
2018-01-08T13:59:16.586Z,14.35
2018-01-08T14:01:44.811Z,13.90
2018-01-08T14:04:12.261Z,13.00
2018-01-08T14:06:40.478Z,12.68
2018-01-08T14:09:08.689Z,12.73
2018-01-08T14:11:36.173Z,12.80
2018-01-08T14:14:04.377Z,12.45
2018-01-08T14:16:31.830Z,12.15
2018-01-08T14:19:00.046Z,12.80
2018-01-08T14:21:27.496Z,12.13
2018-01-08T14:23:55.709Z,12.10
2018-01-08T14:26:23.175Z,11.68
2018-01-08T14:28:50.618Z,11.52
2018-01-08T14:31:18.084Z,11.20
2018-01-08T14:33:45.533Z,11.60
2018-01-08T14:36:12.982Z,11.07
2018-01-08T14:38:40.437Z,10.80
2018-01-08T14:41:07.894Z,11.12
2018-01-08T14:43:35.337Z,10.87
2018-01-08T14:46:03.559Z,10.90
2018-01-08T14:48:31.009Z,12.30
2018-01-08T14:50:58.462Z,11.07
2018-01-08T14:53:25.910Z,11.43
2018-01-08T14:55:53.377Z,11.50
2018-01-08T14:58:21.593Z,10.40
2018-01-08T15:00:49.049Z,11.02
2018-01-08T15:03:17.260Z,11.40
2018-01-08T15:05:44.723Z,11.70
2018-01-08T15:08:12.939Z,11.05
2018-01-08T15:10:40.394Z,10.98
2018-01-08T15:13:07.847Z,11.00
2018-01-08T15:15:35.302Z,11.45
2018-01-08T15:18:02.745Z,11.70
2018-01-08T15:20:30.974Z,10.90
2018-01-08T15:22:58.419Z,10.77
2018-01-08T15:25:25.860Z,11.32
2018-01-08T15:27:53.312Z,11.20
2018-01-08T15:30:20.756Z,11.47
2018-01-08T15:32:48.224Z,10.73
2018-01-08T15:35:15.659Z,11.00
2018-01-08T15:37:43.109Z,11.57
2018-01-08T15:40:11.313Z,12.10
2018-01-08T15:42:39.531Z,11.45
2018-01-08T15:45:06.970Z,12.02
2018-01-08T15:47:34.418Z,11.57
2018-01-08T15:50:01.857Z,12.05
2018-01-08T15:52:30.076Z,11.40
2018-01-08T15:55:03.320Z,11.20
2018-01-08T15:57:30.771Z,12.23
2018-01-08T15:59:58.216Z,12.10
2018-01-08T16:02:25.683Z,11.80
2018-01-08T16:04:53.121Z,11.95
2018-01-08T16:07:20.547Z,12.80
2018-01-08T16:09:48.073Z,12.98
2018-01-08T16:12:15.508Z,12.90
2018-01-08T16:14:42.952Z,11.73
2018-01-08T16:17:10.392Z,12.17
2018-01-08T16:19:37.835Z,11.33
2018-01-08T16:22:05.273Z,12.30
2018-01-08T16:24:33.479Z,10.97
2018-01-08T16:27:00.915Z,13.13
2018-01-08T16:29:28.372Z,12.07
2018-01-08T16:31:56.567Z,12.47
2018-01-08T16:34:24.037Z,12.27
2018-01-08T16:36:51.491Z,12.03
2018-01-08T16:39:19.688Z,11.43
2018-01-08T16:41:47.916Z,12.97
2018-01-08T16:44:15.356Z,11.70
2018-01-08T16:46:43.566Z,12.07
2018-01-08T16:49:11.764Z,11.67
2018-01-08T16:51:39.967Z,13.10
2018-01-08T16:54:07.449Z,13.60
2018-01-08T16:56:35.652Z,15.57
2018-01-08T16:59:03.092Z,15.50
2018-01-08T17:01:30.540Z,15.43
2018-01-08T17:03:57.975Z,15.20
2018-01-08T17:06:26.187Z,14.40
2018-01-08T17:08:53.624Z,14.23
2018-01-08T17:11:21.083Z,15.80
2018-01-08T17:13:48.524Z,15.80
2018-01-08T17:16:15.976Z,16.27
2018-01-08T17:18:43.432Z,17.45
2018-01-08T17:21:10.877Z,16.75
2018-01-08T17:23:38.313Z,17.70
2018-01-08T17:26:05.764Z,16.02
2018-01-08T17:28:33.257Z,16.30
2018-01-08T17:31:00.730Z,16.60
2018-01-08T17:33:28.222Z,17.02
2018-01-08T17:35:55.648Z,16.70
2018-01-08T17:38:23.871Z,14.68
2018-01-08T17:40:51.350Z,15.15
2018-01-08T17:43:18.797Z,15.43
2018-01-08T17:45:47.001Z,16.85
2018-01-08T17:48:15.214Z,16.25
2018-01-08T17:50:42.702Z,15.85
2018-01-08T17:53:10.175Z,16.33
2018-01-08T17:55:38.414Z,17.03
2018-01-08T17:58:05.882Z,17.05
2018-01-08T18:00:33.316Z,21.12
2018-01-08T18:03:01.564Z,20.35
2018-01-08T18:05:28.992Z,19.67
2018-01-08T18:07:57.246Z,20.30
2018-01-08T18:10:24.679Z,17.00
2018-01-08T18:12:52.903Z,18.10
2018-01-08T18:15:20.340Z,17.25
2018-01-08T18:17:47.790Z,19.00
2018-01-08T18:20:15.237Z,19.05
2018-01-08T18:22:42.722Z,20.10
2018-01-08T18:25:10.152Z,19.00
2018-01-08T18:27:37.604Z,19.60
2018-01-08T18:30:05.082Z,20.85
2018-01-08T18:32:32.496Z,18.20
2018-01-08T18:34:59.939Z,19.58
2018-01-08T18:37:27.380Z,17.33
2018-01-08T18:39:55.635Z,19.20
2018-01-08T18:42:23.098Z,18.37
2018-01-08T18:44:50.570Z,17.73
2018-01-08T18:47:18.033Z,17.57
2018-01-08T18:49:46.232Z,18.70
2018-01-08T18:52:14.428Z,17.87
2018-01-08T18:54:41.879Z,18.90
2018-01-08T18:57:09.318Z,18.70
2018-01-08T18:59:36.813Z,18.47
2018-01-08T19:02:04.295Z,17.07
2018-01-08T19:04:31.773Z,22.02
2018-01-08T19:06:59.209Z,21.83
2018-01-08T19:09:27.458Z,19.90
2018-01-08T19:11:54.926Z,18.80
2018-01-08T19:14:22.434Z,21.30
2018-01-08T19:16:49.910Z,20.90
2018-01-08T19:19:17.391Z,19.53
2018-01-08T19:21:44.875Z,22.35
2018-01-08T19:24:12.345Z,23.00
2018-01-08T19:26:39.809Z,23.05
2018-01-08T19:29:07.231Z,22.00
2018-01-08T19:31:34.748Z,24.70
2018-01-08T19:34:02.222Z,22.23
2018-01-08T19:36:29.702Z,21.25
2018-01-08T19:38:57.119Z,18.97
2018-01-08T19:41:24.563Z,20.13
2018-01-08T19:43:52.055Z,17.77
2018-01-08T19:46:19.535Z,20.87
2018-01-08T19:48:47.011Z,19.53
2018-01-08T19:51:14.500Z,20.40
2018-01-08T19:53:41.967Z,19.23
2018-01-08T19:56:09.450Z,17.87
2018-01-08T19:58:36.931Z,18.37
2018-01-08T20:01:04.408Z,17.57
2018-01-08T20:03:31.831Z,19.75
2018-01-08T20:05:59.332Z,19.55
2018-01-08T20:08:26.764Z,20.65
2018-01-08T20:10:55.025Z,19.42
2018-01-08T20:13:22.455Z,18.20
2018-01-08T20:15:50.717Z,17.15
2018-01-08T20:18:18.210Z,17.90
2018-01-08T20:20:45.682Z,18.90
2018-01-08T20:23:13.169Z,18.10
2018-01-08T20:25:40.637Z,17.60
2018-01-08T20:28:08.141Z,19.25
2018-01-08T20:30:35.632Z,19.95
2018-01-08T20:33:03.111Z,19.60
2018-01-08T20:35:30.606Z,19.73
2018-01-08T20:37:58.888Z,18.62
2018-01-08T20:40:26.360Z,18.87
2018-01-08T20:42:53.855Z,20.03
2018-01-08T20:45:21.332Z,22.17
2018-01-08T20:47:48.811Z,22.25
2018-01-08T20:50:16.296Z,21.20
2018-01-08T20:52:43.780Z,19.60
2018-01-08T20:55:11.260Z,19.53
2018-01-08T20:57:38.746Z,17.85
2018-01-08T21:00:06.214Z,19.42
2018-01-08T21:02:33.702Z,19.02
2018-01-08T21:05:01.124Z,18.55
2018-01-08T21:07:28.623Z,17.80
2018-01-08T21:09:56.111Z,17.05
2018-01-08T21:12:23.608Z,18.98
2018-01-08T21:14:51.091Z,20.27
2018-01-08T21:17:18.573Z,21.17
2018-01-08T21:19:46.055Z,20.92
2018-01-08T21:22:13.537Z,19.83
2018-01-08T21:24:41.005Z,21.02
2018-01-08T21:27:09.205Z,21.70
2018-01-08T21:29:36.718Z,21.10
2018-01-08T21:32:04.193Z,22.10
2018-01-08T21:34:31.686Z,22.37
2018-01-08T21:36:59.171Z,22.48
2018-01-08T21:39:26.594Z,23.60
2018-01-08T21:41:54.091Z,20.63
2018-01-08T21:44:21.583Z,22.87
2018-01-08T21:46:49.067Z,24.35
2018-01-08T21:49:16.553Z,23.30
2018-01-08T21:51:44.018Z,22.65
2018-01-08T21:54:11.501Z,21.40
2018-01-08T21:56:38.981Z,20.10
2018-01-08T21:59:06.458Z,18.60
2018-01-08T22:01:33.917Z,16.40
2018-01-08T22:04:01.404Z,18.70
2018-01-08T22:06:28.877Z,19.50
2018-01-08T22:08:56.359Z,17.77
2018-01-08T22:11:23.834Z,17.10
2018-01-08T22:13:52.089Z,17.20
2018-01-08T22:16:19.571Z,17.03
2018-01-08T22:18:47.047Z,19.20
2018-01-08T22:21:14.527Z,16.47
2018-01-08T22:23:41.957Z,16.00
2018-01-08T22:26:09.451Z,17.07
2018-01-08T22:28:36.942Z,16.17
2018-01-08T22:31:04.408Z,15.67
2018-01-08T22:33:31.903Z,17.97
2018-01-08T22:35:59.328Z,17.30
2018-01-08T22:38:26.827Z,17.97
2018-01-08T22:40:54.299Z,16.97
2018-01-08T22:43:21.778Z,15.80
2018-01-08T22:45:49.251Z,16.43
2018-01-08T22:48:16.717Z,16.63
2018-01-08T22:50:44.203Z,16.47
2018-01-08T22:53:11.674Z,16.83
2018-01-08T22:55:39.156Z,16.80
2018-01-08T22:58:06.629Z,16.20
2018-01-08T23:00:34.121Z,17.40
2018-01-08T23:03:01.602Z,16.43
2018-01-08T23:05:29.098Z,15.50
2018-01-08T23:07:56.593Z,14.70
2018-01-08T23:10:24.084Z,15.80
2018-01-08T23:12:52.319Z,15.80
2018-01-08T23:15:19.807Z,15.70
2018-01-08T23:17:47.275Z,15.20
2018-01-08T23:20:14.758Z,14.13
2018-01-08T23:22:42.227Z,14.50
2018-01-08T23:25:09.697Z,13.80
2018-01-08T23:27:37.931Z,16.03
2018-01-08T23:30:05.422Z,15.70
2018-01-08T23:32:32.886Z,15.63
2018-01-08T23:35:00.315Z,14.47
2018-01-08T23:37:28.518Z,15.23
2018-01-08T23:39:56.770Z,16.27
2018-01-08T23:42:24.195Z,14.57
2018-01-08T23:44:52.410Z,14.37
2018-01-08T23:47:19.839Z,15.00
2018-01-08T23:49:47.291Z,14.33
2018-01-08T23:52:14.780Z,14.60
2018-01-08T23:54:42.209Z,13.27
2018-01-08T23:57:09.693Z,12.97
2018-01-08T23:59:37.128Z,13.23
